Time;durP1;ratioP1;P1;durP2;ratioP2;P2;SDS_P1;SDS_P2;PMS_P1;PMS_P2;Temp;Humidity;BMP_temperature;BMP_pressure;BME280_temperature;BME280_humidity;BME280_pressure;Samples;Min_cycle;Max_cycle;Signal;HPM_P1;HPM_P2
2022/04/16 02:51:14;;;;;;;3.15;1.60;;;;;;;9.17;61.35;100930.25;1086866;54;20042;-77
2022/04/16 02:52:16;;;;;;;3.67;1.88;;;;;;;9.17;60.98;100930.25;1087209;54;20876;-77
2022/04/16 02:54:44;;;;;;;3.22;1.55;;;;;;;9.16;61.04;100939.22;1088312;54;20031;-86
2022/04/16 02:55:46;;;;;;;3.80;1.40;;;;;;;9.19;60.84;100931.00;1088376;54;20839;-87
2022/04/16 02:56:50;;;;;;;3.15;1.52;;;;;;;9.19;61.19;100943.50;1088413;54;20018;-85
2022/04/16 02:57:55;;;;;;;2.75;1.13;;;;;;;9.26;60.61;100941.22;1088351;54;20026;-85
2022/04/16 02:58:56;;;;;;;3.10;1.50;;;;;;;9.34;60.67;100933.50;1089911;39;20541;-85
2022/04/16 03:00:01;;;;;;;3.63;1.55;;;;;;;9.34;60.60;100934.31;1088468;39;20093;-86
2022/04/16 03:01:05;;;;;;;3.75;1.67;;;;;;;9.28;60.48;100934.78;1088356;54;20023;-84
2022/04/16 03:02:06;;;;;;;3.35;1.80;;;;;;;9.22;61.00;100935.22;1088400;54;20023;-82
2022/04/16 03:03:13;;;;;;;4.13;1.55;;;;;;;9.21;61.05;100937.06;1088435;54;20703;-85
2022/04/16 03:04:15;;;;;;;3.63;1.48;;;;;;;9.19;60.90;100932.81;1088572;54;20054;-84
2022/04/16 03:05:22;;;;;;;4.05;1.80;;;;;;;9.15;61.39;100942.88;1088327;54;20786;-84
2022/04/16 03:06:26;;;;;;;3.33;1.50;;;;;;;9.09;61.68;100932.63;1088403;54;20026;-85
2022/04/16 03:07:32;;;;;;;3.53;1.50;;;;;;;9.14;61.22;100937.63;1088392;54;20034;-84
2022/04/16 03:08:34;;;;;;;3.85;1.73;;;;;;;9.14;61.20;100933.16;1088339;54;20030;-85
2022/04/16 03:09:38;;;;;;;3.75;1.50;;;;;;;9.18;61.04;100923.09;1088333;54;20034;-86
2022/04/16 03:10:44;;;;;;;3.00;1.38;;;;;;;9.23;60.95;100933.44;1089648;46;20042;-84
2022/04/16 03:11:45;;;;;;;3.08;1.50;;;;;;;9.21;60.70;100930.88;1091854;46;20038;-83
2022/04/16 03:12:51;;;;;;;3.70;1.95;;;;;;;9.21;60.93;100933.53;1088936;46;20019;-84
2022/04/16 03:17:31;;;;;;;3.67;1.60;;;;;;;9.22;60.86;100935.22;1090592;46;20050;-86
2022/04/16 03:18:01;;;;;;;3.63;1.73;;;;;;;9.11;61.22;100932.53;1088018;54;20049;-82
2022/04/16 03:19:04;;;;;;;3.53;1.88;;;;;;;9.12;61.14;100937.75;1088145;54;20034;-85
2022/04/16 03:20:10;;;;;;;3.80;1.70;;;;;;;9.14;60.86;100933.16;1088272;46;20034;-84
2022/04/16 03:21:13;;;;;;;3.30;1.52;;;;;;;9.17;60.96;100938.25;1088104;54;20297;-84
2022/04/16 03:22:19;;;;;;;3.00;1.40;;;;;;;9.17;61.27;100937.41;1088149;54;20110;-83
2022/04/16 03:23:23;;;;;;;3.03;1.60;;;;;;;9.17;61.02;100932.91;1087977;54;20038;-84
2022/04/16 03:24:27;;;;;;;3.25;1.50;;;;;;;9.23;60.94;100930.78;1088856;46;20077;-86
2022/04/16 03:25:32;;;;;;;3.20;1.40;;;;;;;9.25;60.88;100934.19;1088145;54;20042;-83
2022/04/16 03:26:35;;;;;;;3.90;1.50;;;;;;;9.26;60.81;100935.88;1088135;54;20023;-83
2022/04/16 03:27:39;;;;;;;4.05;1.90;;;;;;;9.26;60.87;100934.06;1088139;54;20069;-84
2022/04/16 03:28:44;;;;;;;3.55;1.73;;;;;;;9.32;60.40;100930.91;1088156;54;20029;-84
2022/04/16 03:29:45;;;;;;;2.85;1.48;;;;;;;9.34;60.47;100933.50;1088186;54;20022;-85
2022/04/16 03:30:50;;;;;;;3.08;1.35;;;;;;;9.39;60.41;100936.66;1088165;54;20034;-85
2022/04/16 03:31:52;;;;;;;3.17;1.42;;;;;;;9.41;60.51;100939.19;1088055;54;20050;-86
2022/04/16 03:32:56;;;;;;;3.10;1.30;;;;;;;9.46;60.08;100932.53;1087912;47;20049;-84
2022/04/16 03:33:58;;;;;;;3.00;1.40;;;;;;;9.47;60.43;100934.25;1089245;46;20162;-86
2022/04/16 03:35:05;;;;;;;2.97;1.45;;;;;;;9.44;60.33;100937.16;1088672;46;20094;-85
2022/04/16 03:36:09;;;;;;;3.13;1.30;;;;;;;9.50;60.20;100934.03;1088919;46;20030;-86
2022/04/16 03:37:10;;;;;;;4.25;1.70;;;;;;;9.48;60.42;100935.13;1088092;54;20038;-85
2022/04/16 03:38:17;;;;;;;2.85;1.30;;;;;;;9.52;59.92;100937.44;1088280;54;20022;-86
2022/04/16 03:39:20;;;;;;;3.20;1.58;;;;;;;9.46;60.33;100937.88;1088149;54;20026;-88
2022/04/16 03:40:26;;;;;;;3.50;1.60;;;;;;;9.41;60.58;100932.06;1092422;46;20072;-86
2022/04/16 03:41:28;;;;;;;3.88;1.95;;;;;;;9.42;60.76;100931.09;1089048;46;20044;-85
2022/04/16 03:42:32;;;;;;;3.22;1.20;;;;;;;9.43;60.62;100939.94;1089630;46;20030;-86
2022/04/16 03:43:34;;;;;;;6.80;1.80;;;;;;;9.41;60.86;100942.72;1088507;47;20045;-86
2022/04/16 03:44:38;;;;;;;4.18;1.80;;;;;;;9.46;60.82;100945.88;1089811;46;20018;-84
2022/04/16 03:45:43;;;;;;;3.78;1.63;;;;;;;9.47;61.12;100950.25;1088446;54;20018;-84
2022/04/16 03:46:44;;;;;;;3.55;1.70;;;;;;;9.50;60.84;100944.72;1088296;54;20042;-86
2022/04/16 03:47:49;;;;;;;3.58;1.63;;;;;;;9.56;60.93;100958.53;1088501;46;20035;-84
2022/04/16 03:48:51;;;;;;;3.53;1.73;;;;;;;9.58;61.06;100945.94;1088363;46;20054;-85
2022/04/16 03:49:55;;;;;;;3.63;1.70;;;;;;;9.62;60.67;100945.59;1088275;46;20064;-86
2022/04/16 03:50:56;;;;;;;3.10;1.70;;;;;;;9.61;60.92;100940.38;1095385;39;20771;-86
2022/04/16 03:52:00;;;;;;;3.80;1.83;;;;;;;9.60;60.83;100944.00;1089386;46;20094;-85
2022/04/16 03:53:04;;;;;;;4.38;2.20;;;;;;;9.58;61.05;100946.81;1089112;46;20021;-86
2022/04/16 04:00:37;;;;;;;4.30;2.10;;;;;;;9.43;61.95;100962.16;1088169;54;20030;-84
2022/04/16 04:01:39;;;;;;;4.95;2.15;;;;;;;9.43;61.95;100956.81;1088138;54;20038;-88
2022/04/16 04:02:43;;;;;;;3.63;1.92;;;;;;;9.42;61.95;100965.78;1088001;54;20034;-85
2022/04/16 04:03:46;;;;;;;3.92;2.10;;;;;;;9.46;62.04;100959.22;1088383;54;20031;-87
2022/04/16 04:04:50;;;;;;;4.78;2.10;;;;;;;9.45;61.84;100960.19;1088726;46;20011;-85
2022/04/16 04:05:54;;;;;;;3.58;1.80;;;;;;;9.45;62.05;100964.69;1088432;54;20026;-86
2022/04/16 04:06:58;;;;;;;4.20;2.38;;;;;;;9.45;62.24;100960.19;1089245;46;20090;-86
2022/04/16 04:08:00;;;;;;;3.00;1.75;;;;;;;9.51;61.83;100954.41;1088247;54;20018;-85
2022/04/16 04:09:06;;;;;;;4.72;2.22;;;;;;;9.51;61.83;100951.75;1088207;54;20034;-85
2022/04/16 04:10:13;;;;;;;3.70;1.73;;;;;;;9.51;62.13;100956.22;1087931;54;20690;-85
2022/04/16 04:11:17;;;;;;;3.47;1.80;;;;;;;9.57;62.09;100960.25;1088411;46;20094;-87
2022/04/16 04:12:19;;;;;;;4.10;2.30;;;;;;;9.60;61.72;100952.03;1089359;39;20575;-85
2022/04/16 04:13:23;;;;;;;3.00;1.60;;;;;;;9.66;61.64;100963.09;1087934;54;20053;-84
2022/04/16 04:14:25;;;;;;;4.15;1.90;;;;;;;9.60;61.92;100962.69;1087860;54;20042;-87
2022/04/16 04:15:29;;;;;;;4.03;2.00;;;;;;;9.63;61.83;100965.16;1087902;54;20335;-85
2022/04/16 04:16:31;;;;;;;3.80;2.03;;;;;;;9.63;61.68;100957.97;1088128;54;20101;-87
2022/04/16 04:17:35;;;;;;;3.83;2.30;;;;;;;9.54;62.21;100961.34;1088296;54;20038;-84
2022/04/16 04:18:37;;;;;;;3.72;2.28;;;;;;;9.56;62.18;100963.88;1088230;54;20046;-84
2022/04/16 04:19:42;;;;;;;5.40;2.28;;;;;;;9.57;62.11;100968.25;1089215;39;20683;-85
2022/04/16 04:20:44;;;;;;;4.88;2.45;;;;;;;9.52;62.26;100957.94;1088338;54;20046;-85
2022/04/16 04:21:49;;;;;;;3.80;1.98;;;;;;;9.52;62.22;100958.78;1088459;54;20030;-84
2022/04/16 04:22:51;;;;;;;4.35;2.38;;;;;;;9.54;62.08;100956.00;1088335;54;20019;-86
2022/04/16 04:23:55;;;;;;;4.30;2.33;;;;;;;9.59;62.38;100955.66;1088292;54;20018;-85
2022/04/16 04:24:56;;;;;;;4.40;2.15;;;;;;;9.58;62.04;100967.28;1088174;54;20018;-86
2022/04/16 04:26:04;;;;;;;4.75;2.50;;;;;;;9.56;62.38;100963.88;1088231;54;20034;-84
2022/04/16 04:27:07;;;;;;;3.92;2.05;;;;;;;9.60;62.10;100957.34;1088268;54;20038;-85
2022/04/16 04:28:12;;;;;;;3.97;2.00;;;;;;;9.61;62.14;100959.91;1088226;54;20030;-85
2022/04/16 04:29:13;;;;;;;3.97;2.22;;;;;;;9.65;62.10;100957.84;1088153;54;20091;-83
2022/04/16 04:30:17;;;;;;;4.38;2.30;;;;;;;9.64;62.10;100951.66;1087742;54;20034;-82
2022/04/16 04:31:19;;;;;;;4.97;2.17;;;;;;;9.60;61.85;100958.19;1087898;54;20011;-84
2022/04/16 04:32:23;;;;;;;4.88;2.40;;;;;;;9.57;62.02;100960.25;1088126;54;20035;-81
2022/04/16 04:33:27;;;;;;;3.72;2.03;;;;;;;9.65;62.00;100969.38;1087813;54;20035;-82
2022/04/16 04:34:29;;;;;;;4.78;2.22;;;;;;;9.71;61.79;100961.88;1087740;54;20048;-80
2022/04/16 04:35:33;;;;;;;5.20;2.38;;;;;;;9.73;61.95;100966.13;1088004;46;20056;-80
2022/04/16 04:36:35;;;;;;;4.90;2.45;;;;;;;9.67;62.06;100961.25;1087351;54;20042;-81
2022/04/16 04:37:39;;;;;;;4.75;3.00;;;;;;;9.58;62.41;100968.16;1087621;54;20030;-80
2022/04/16 04:38:43;;;;;;;4.50;2.50;;;;;;;9.52;62.55;100963.25;1087683;54;20026;-80
2022/04/16 04:39:45;;;;;;;5.05;2.10;;;;;;;9.59;62.42;100963.66;1087468;54;20038;-81
2022/04/16 04:40:49;;;;;;;3.58;2.00;;;;;;;9.60;62.57;100962.69;1087418;54;20174;-81
2022/04/16 04:41:53;;;;;;;4.13;2.13;;;;;;;9.59;62.53;100961.00;1087445;54;20046;-82
2022/04/16 04:42:57;;;;;;;4.53;2.47;;;;;;;9.60;62.61;100965.38;1087428;54;20674;-80
2022/04/16 04:44:00;;;;;;;3.85;2.20;;;;;;;9.63;62.25;100967.81;1090194;39;20605;-83
2022/04/16 04:45:10;;;;;;;3.55;1.90;;;;;;;9.60;62.48;100963.53;1087701;54;20058;-82
2022/04/16 04:46:14;;;;;;;4.20;2.25;;;;;;;9.58;62.27;100956.63;1087759;54;20090;-80
2022/04/16 04:47:18;;;;;;;4.68;2.35;;;;;;;9.58;62.45;100969.97;1091247;39;20672;-81
2022/04/16 04:48:22;;;;;;;4.78;2.40;;;;;;;9.60;62.27;100965.38;1087758;54;20034;-81
2022/04/16 04:49:23;;;;;;;3.85;2.10;;;;;;;9.60;62.47;100960.03;1087681;54;20026;-82
2022/04/16 04:50:28;;;;;;;6.53;2.50;;;;;;;9.58;62.56;100973.50;1087808;54;20041;-81
2022/04/16 04:51:29;;;;;;;3.75;2.03;;;;;;;9.63;62.23;100974.00;1087694;54;20041;-80
2022/04/16 04:52:33;;;;;;;5.35;2.10;;;;;;;9.65;62.25;100971.19;1090951;47;20042;-80
2022/04/16 04:53:35;;;;;;;5.65;2.58;;;;;;;9.61;62.32;100967.91;1087680;54;20026;-79
2022/04/16 04:54:39;;;;;;;4.35;2.40;;;;;;;9.64;62.47;100967.69;1087313;54;20030;-80
2022/04/16 04:55:41;;;;;;;4.25;2.47;;;;;;;9.60;62.32;100968.03;1087478;47;20061;-81
2022/04/16 04:56:45;;;;;;;3.85;2.35;;;;;;;9.65;62.24;100979.19;1087958;54;20030;-83
2022/04/16 04:57:54;;;;;;;4.00;2.22;;;;;;;9.64;62.08;100972.16;1087943;54;20033;-82
2022/04/16 04:58:58;;;;;;;4.03;2.28;;;;;;;9.64;62.34;100978.38;1087863;54;20015;-82
2022/04/16 05:00:00;;;;;;;4.28;2.45;;;;;;;9.61;62.20;100975.06;1087987;54;20032;-81
2022/04/16 05:01:04;;;;;;;4.82;2.80;;;;;;;9.66;62.21;100983.56;1088284;47;20015;-83
2022/04/16 05:02:12;;;;;;;4.50;2.45;;;;;;;9.67;62.34;100985.28;1088167;54;20065;-86
2022/04/16 05:03:16;;;;;;;5.32;2.28;;;;;;;9.64;62.39;100981.03;1088049;54;20038;-84
2022/04/16 05:04:19;;;;;;;4.30;2.58;;;;;;;9.67;62.16;100987.97;1090183;47;20038;-85
2022/04/16 05:05:35;;;;;;;4.40;2.20;;;;;;;9.63;62.53;100990.00;1088320;54;20019;-84
2022/04/16 05:06:36;;;;;;;5.35;2.70;;;;;;;9.66;62.53;100986.25;1089298;47;20026;-85
2022/04/16 05:07:41;;;;;;;4.40;2.60;;;;;;;9.70;61.91;100982.38;1090137;47;20038;-88
2022/04/16 05:08:43;;;;;;;4.03;2.30;;;;;;;9.72;62.13;100988.47;1087976;54;20046;-81
2022/04/16 05:09:47;;;;;;;4.28;2.20;;;;;;;9.65;62.30;100993.41;1087931;54;20041;-84
2022/04/16 05:10:49;;;;;;;4.50;2.10;;;;;;;9.70;62.43;100984.19;1088045;54;20039;-84
2022/04/16 05:11:53;;;;;;;4.20;2.22;;;;;;;9.66;62.48;100989.78;1088118;54;20031;-86
2022/04/16 05:12:59;;;;;;;4.50;2.20;;;;;;;9.73;62.45;100984.81;1088246;54;20045;-87
2022/04/16 05:14:03;;;;;;;3.65;2.10;;;;;;;9.74;62.36;100986.50;1088529;39;20298;-85
2022/04/16 05:15:11;;;;;;;4.07;2.20;;;;;;;9.70;62.90;100997.53;1088066;54;20034;-86
2022/04/16 05:16:15;;;;;;;4.05;2.03;;;;;;;9.76;62.44;100992.59;1087904;54;20048;-85
2022/04/16 05:17:17;;;;;;;4.07;2.08;;;;;;;9.74;62.52;100989.19;1087822;54;20033;-85
2022/04/16 05:18:21;;;;;;;6.10;2.10;;;;;;;9.80;62.37;100990.53;1087757;54;20061;-85
2022/04/16 05:19:23;;;;;;;5.32;3.08;;;;;;;9.84;62.11;100990.19;1087784;54;20030;-84
2022/04/16 05:20:28;;;;;;;5.32;2.60;;;;;;;9.82;62.46;100992.13;1087811;54;20030;-83
2022/04/16 05:21:32;;;;;;;6.47;2.95;;;;;;;9.85;62.23;101001.75;1087743;54;20035;-82
2022/04/16 05:22:34;;;;;;;4.85;2.42;;;;;;;9.88;62.04;101001.50;1087793;54;20046;-84
2022/04/16 05:23:39;;;;;;;4.53;2.55;;;;;;;9.89;62.09;100995.19;1087777;54;20031;-85
2022/04/16 05:24:41;;;;;;;5.65;2.47;;;;;;;9.88;62.07;100992.63;1087614;54;20034;-82
2022/04/16 05:25:45;;;;;;;4.03;2.30;;;;;;;9.84;62.50;100995.53;1087671;54;20035;-84
2022/04/16 05:26:46;;;;;;;5.30;2.85;;;;;;;9.85;62.23;100991.06;1087897;54;20039;-85
2022/04/16 05:27:51;;;;;;;4.55;2.70;;;;;;;9.82;62.52;100996.63;1087735;54;20038;-85
2022/04/16 05:28:58;;;;;;;5.32;2.88;;;;;;;9.84;62.34;101003.53;1087707;54;20026;-84
2022/04/16 05:30:06;;;;;;;4.75;2.55;;;;;;;9.79;62.57;101007.53;1087686;54;20035;-85
2022/04/16 05:31:10;;;;;;;4.90;2.53;;;;;;;9.70;62.45;101009.09;1087750;54;20037;-84
2022/04/16 05:32:12;;;;;;;5.47;2.55;;;;;;;9.64;62.86;101006.88;1087902;54;20034;-83
2022/04/16 05:34:18;;;;;;;4.20;2.40;;;;;;;9.59;62.86;101009.88;1088021;54;21138;-84
2022/04/16 05:34:40;;;;;;;6.70;2.42;;;;;;;9.56;63.34;101009.25;1088110;54;20027;-87
2022/04/16 05:35:45;;;;;;;4.18;2.33;;;;;;;9.57;63.21;101008.31;1097477;39;20246;-85
2022/04/16 05:36:48;;;;;;;4.65;2.30;;;;;;;9.65;62.57;101009.44;1088111;54;20030;-83
2022/04/16 05:37:52;;;;;;;4.95;2.50;;;;;;;9.63;62.60;101010.53;1088176;54;20634;-81
2022/04/16 05:38:54;;;;;;;6.38;2.72;;;;;;;9.64;62.85;101009.53;1088014;54;20039;-85
2022/04/16 05:39:58;;;;;;;4.43;2.40;;;;;;;9.68;62.60;101011.03;1088012;54;20019;-80
2022/04/16 05:41:00;;;;;;;6.38;2.42;;;;;;;9.69;62.37;101012.72;1088032;54;20030;-82
2022/04/16 05:42:05;;;;;;;4.53;2.20;;;;;;;9.71;62.36;101007.25;1088039;54;20037;-80
2022/04/16 05:43:06;;;;;;;4.80;2.22;;;;;;;9.82;62.12;101005.47;1087969;54;20099;-79
2022/04/16 05:44:13;;;;;;;3.90;2.08;;;;;;;9.88;61.90;101000.66;1088059;54;20030;-83
2022/04/16 05:45:15;;;;;;;4.35;2.03;;;;;;;9.89;61.71;101005.03;1088035;54;20034;-83
2022/04/16 05:46:19;;;;;;;4.20;1.70;;;;;;;9.92;61.80;101010.16;1088420;54;20034;-82
2022/04/16 05:47:21;;;;;;;3.60;1.80;;;;;;;9.96;61.61;101008.94;1088476;39;20661;-82
2022/04/16 05:48:25;;;;;;;4.07;2.40;;;;;;;9.96;61.48;101008.94;1088009;54;20818;-82
2022/04/16 05:49:27;;;;;;;4.00;1.92;;;;;;;9.99;61.55;101008.69;1088386;54;20045;-83
2022/04/16 05:50:31;;;;;;;3.50;1.90;;;;;;;10.00;61.43;101010.41;1088367;54;20034;-83
2022/04/16 05:51:33;;;;;;;3.88;2.10;;;;;;;10.04;61.25;101008.34;1088371;54;20318;-82
2022/04/16 05:52:38;;;;;;;4.78;2.45;;;;;;;10.03;61.19;101014.66;1088398;54;20090;-85
2022/04/16 05:53:40;;;;;;;4.28;2.50;;;;;;;9.95;61.25;101017.91;1088337;54;20034;-84
2022/04/16 05:54:44;;;;;;;4.15;2.50;;;;;;;9.96;61.20;101020.47;1090222;39;20593;-82
2022/04/16 05:55:50;;;;;;;4.78;2.30;;;;;;;9.97;61.49;101014.13;1088307;54;20031;-81
2022/04/16 05:56:54;;;;;;;4.55;2.25;;;;;;;10.05;60.93;101018.91;1088401;54;20030;-83
2022/04/16 05:57:56;;;;;;;5.97;3.55;;;;;;;10.03;60.92;101020.00;1088387;54;20026;-84
2022/04/16 05:59:03;;;;;;;4.28;2.50;;;;;;;10.01;61.15;101017.47;1090066;39;20656;-84
2022/04/16 06:00:12;;;;;;;4.30;2.20;;;;;;;10.05;60.98;101029.59;1088317;54;20038;-83
2022/04/16 06:01:17;;;;;;;4.18;2.30;;;;;;;10.04;61.11;101033.22;1088345;54;20054;-80
2022/04/16 06:02:19;;;;;;;4.03;2.00;;;;;;;10.09;61.01;101025.72;1088335;54;20057;-79
2022/04/16 06:03:23;;;;;;;4.22;2.20;;;;;;;10.11;60.78;101025.59;1088200;54;20035;-82
2022/04/16 06:04:25;;;;;;;5.57;2.42;;;;;;;9.98;61.09;101023.84;1087927;54;20034;-82
2022/04/16 06:05:31;;;;;;;4.72;2.30;;;;;;;9.97;61.35;101032.84;1088217;54;20034;-83
2022/04/16 06:06:36;;;;;;;4.15;2.20;;;;;;;9.95;61.38;101037.47;1088370;54;20034;-84
2022/04/16 06:07:38;;;;;;;4.57;2.78;;;;;;;9.92;61.38;101044.88;1088375;54;20034;-83
2022/04/16 06:08:44;;;;;;;4.85;2.75;;;;;;;9.82;61.65;101042.84;1088362;54;20035;-82
2022/04/16 06:09:49;;;;;;;3.92;2.38;;;;;;;9.76;62.00;101039.81;1088326;54;20069;-84
2022/04/16 06:10:53;;;;;;;4.55;2.55;;;;;;;9.80;61.84;101042.16;1090538;46;20038;-83
2022/04/16 06:12:01;;;;;;;4.75;2.40;;;;;;;9.84;61.89;101040.94;1093473;39;20669;-84
2022/04/16 06:13:06;;;;;;;3.92;2.03;;;;;;;9.88;61.88;101038.03;1088392;54;20034;-84
2022/04/16 06:14:08;;;;;;;4.50;2.60;;;;;;;9.80;62.05;101042.16;1088393;54;20045;-83
2022/04/16 06:15:15;;;;;;;4.45;2.60;;;;;;;9.87;61.77;101044.34;1091343;39;20735;-85
2022/04/16 06:16:16;;;;;;;4.88;2.70;;;;;;;9.82;61.85;101042.84;1088368;54;20027;-83
2022/04/16 06:17:21;;;;;;;4.88;2.67;;;;;;;9.81;62.29;101046.53;1088364;54;20019;-84
2022/04/16 06:18:22;;;;;;;5.38;2.60;;;;;;;9.86;61.93;101034.63;1088353;54;20029;-82
2022/04/16 06:19:27;;;;;;;4.80;2.75;;;;;;;9.82;62.05;101045.53;1088350;54;20058;-84
2022/04/16 06:20:31;;;;;;;5.40;2.65;;;;;;;9.86;61.89;101047.97;1089968;39;20751;-84
2022/04/16 06:21:33;;;;;;;4.43;2.20;;;;;;;9.92;61.84;101048.38;1088041;54;20035;-81
2022/04/16 06:22:38;;;;;;;4.63;2.90;;;;;;;9.92;61.95;101042.19;1088322;54;20031;-82
2022/04/16 06:23:40;;;;;;;4.65;2.85;;;;;;;9.87;62.39;101052.34;1088325;54;20057;-85
2022/04/16 06:24:44;;;;;;;6.85;2.92;;;;;;;9.88;62.25;101043.38;1088334;54;20037;-81
2022/04/16 06:25:46;;;;;;;4.60;2.80;;;;;;;9.95;62.18;101039.28;1090158;46;20034;-83
2022/04/16 06:26:51;;;;;;;5.93;2.60;;;;;;;10.01;62.14;101044.16;1088351;54;20057;-86
2022/04/16 06:27:53;;;;;;;4.50;2.75;;;;;;;10.12;61.60;101046.00;1088377;54;20038;-83
2022/04/16 06:28:57;;;;;;;6.40;3.10;;;;;;;10.05;61.80;101048.28;1088347;54;20085;-83
2022/04/16 06:29:59;;;;;;;6.28;3.22;;;;;;;10.02;61.96;101040.50;1088316;54;20685;-85
2022/04/16 06:31:06;;;;;;;4.57;2.75;;;;;;;10.04;62.18;101043.06;1088360;54;20017;-83
2022/04/16 06:32:08;;;;;;;5.35;3.03;;;;;;;10.11;62.05;101045.16;1088369;54;20752;-84
2022/04/16 06:33:12;;;;;;;4.25;2.67;;;;;;;10.15;61.77;101041.28;1088297;54;20031;-84
2022/04/16 06:34:14;;;;;;;5.60;3.20;;;;;;;10.11;62.25;101047.81;1088298;54;20034;-82
2022/04/16 06:35:18;;;;;;;4.47;2.88;;;;;;;10.05;62.29;101050.97;1096932;39;20273;-84
2022/04/16 06:36:20;;;;;;;5.35;3.15;;;;;;;9.99;62.70;101044.25;1088303;54;20034;-82
2022/04/16 06:37:24;;;;;;;4.90;2.85;;;;;;;10.07;62.53;101057.06;1087956;54;20037;-82
2022/04/16 06:38:26;;;;;;;5.88;2.95;;;;;;;10.05;62.55;101050.97;1088315;46;20056;-83
2022/04/16 06:39:30;;;;;;;5.20;3.35;;;;;;;10.09;62.55;101054.25;1088363;54;20057;-87
2022/04/16 06:40:34;;;;;;;6.03;3.00;;;;;;;10.04;62.84;101051.09;1088393;54;20054;-84
2022/04/16 06:41:36;;;;;;;5.85;3.17;;;;;;;10.09;62.61;101052.44;1088389;54;20035;-83
2022/04/16 06:42:40;;;;;;;5.35;3.13;;;;;;;10.09;62.79;101046.22;1088378;54;20069;-85
2022/04/16 06:43:42;;;;;;;4.90;2.83;;;;;;;10.10;62.93;101056.81;1088421;54;20712;-83
2022/04/16 06:44:46;;;;;;;5.68;3.60;;;;;;;10.04;63.15;101051.09;1088238;54;20090;-82
2022/04/16 06:45:48;;;;;;;5.72;3.28;;;;;;;10.03;63.54;101047.56;1088319;54;20030;-83
2022/04/16 06:46:55;;;;;;;6.15;3.53;;;;;;;9.92;64.24;101050.22;1088127;54;20030;-85
2022/04/16 06:47:59;;;;;;;5.80;3.85;;;;;;;9.95;64.05;101053.50;1088073;54;20061;-84
2022/04/16 06:49:01;;;;;;;5.68;3.92;;;;;;;10.00;64.13;101053.16;1088025;54;20038;-86
2022/04/16 06:50:06;;;;;;;5.60;3.45;;;;;;;10.11;63.65;101044.31;1087882;54;20076;-85
2022/04/16 06:51:08;;;;;;;5.88;3.30;;;;;;;10.17;63.83;101045.66;1088025;54;20030;-84
2022/04/16 06:52:13;;;;;;;5.35;3.47;;;;;;;10.20;63.61;101042.75;1089079;46;20022;-85
2022/04/16 06:53:17;;;;;;;5.78;3.75;;;;;;;10.21;63.61;101049.78;1088115;54;20090;-85
2022/04/16 06:54:19;;;;;;;6.30;3.95;;;;;;;10.20;63.40;101050.78;1088085;54;20041;-85
2022/04/16 06:55:23;;;;;;;6.00;3.60;;;;;;;10.22;63.62;101043.47;1087930;54;20030;-85
2022/04/16 06:56:25;;;;;;;5.72;4.15;;;;;;;10.17;63.67;101054.50;1087701;54;20033;-86
2022/04/16 06:57:29;;;;;;;6.03;3.95;;;;;;;10.11;64.19;101057.66;1087826;54;20034;-85
2022/04/16 06:58:31;;;;;;;6.97;4.25;;;;;;;10.09;64.17;101052.44;1088409;54;20045;-86
2022/04/16 06:59:37;;;;;;;6.32;4.45;;;;;;;10.13;64.07;101064.59;1088362;54;20018;-86
2022/04/16 07:00:38;;;;;;;7.63;3.90;;;;;;;10.08;64.39;101065.91;1088498;54;20034;-85
2022/04/16 07:01:43;;;;;;;6.82;4.43;;;;;;;10.05;64.33;101064.31;1088485;54;20078;-85
2022/04/16 07:02:47;;;;;;;6.70;4.22;;;;;;;10.08;64.14;101060.56;1088460;54;20018;-86
2022/04/16 07:04:54;;;;;;;6.32;4.20;;;;;;;10.08;64.08;101057.88;1089994;31;20709;-84
2022/04/16 07:05:56;;;;;;;6.35;4.35;;;;;;;10.08;63.88;101072.13;1088369;54;20026;-86
2022/04/16 07:07:00;;;;;;;6.65;4.55;;;;;;;10.01;64.33;101070.88;1090440;46;20025;-85
2022/04/16 07:08:04;;;;;;;5.63;4.03;;;;;;;10.09;64.02;101071.16;1088370;54;20038;-85
2022/04/16 07:09:07;;;;;;;6.03;4.15;;;;;;;10.16;63.90;101066.16;1088366;54;20026;-86
2022/04/16 07:10:12;;;;;;;7.07;3.83;;;;;;;10.18;63.71;101063.41;1088315;54;20035;-86
2022/04/16 07:11:14;;;;;;;6.20;4.40;;;;;;;10.14;64.16;101068.13;1088350;54;20034;-85
2022/04/16 07:12:18;;;;;;;5.70;4.03;;;;;;;10.20;63.85;101064.13;1087965;54;20030;-80
2022/04/16 07:13:20;;;;;;;6.05;3.67;;;;;;;10.30;63.50;101060.63;1095285;39;20640;-83
2022/04/16 07:14:24;;;;;;;5.93;3.60;;;;;;;10.39;63.05;101064.44;1088309;54;20030;-81
2022/04/16 07:15:29;;;;;;;5.95;3.58;;;;;;;10.39;63.08;101063.59;1088263;54;20026;-83
2022/04/16 07:16:30;;;;;;;6.47;4.30;;;;;;;10.36;63.22;101061.97;1088245;54;20022;-82
2022/04/16 07:17:34;;;;;;;6.25;4.28;;;;;;;10.35;63.45;101068.28;1088238;54;20771;-81
2022/04/16 07:18:39;;;;;;;6.03;4.07;;;;;;;10.33;63.54;101064.03;1088231;54;20046;-82
2022/04/16 08:54:25;;;;;;;7.95;5.32;;;;;;;11.42;55.47;101116.13;1087254;47;20042;-79
2022/04/16 08:55:28;;;;;;;7.45;5.38;;;;;;;11.57;55.57;101118.56;1088820;39;20650;-78
2022/04/16 08:56:34;;;;;;;8.68;5.72;;;;;;;11.76;55.18;101125.91;1088109;54;20034;-76
2022/04/16 08:57:36;;;;;;;8.45;5.72;;;;;;;11.90;54.62;101117.59;1087982;54;20035;-76
2022/04/16 08:58:41;;;;;;;7.68;5.30;;;;;;;11.93;54.19;101125.38;1087966;54;20061;-77
2022/04/16 08:59:49;;;;;;;8.68;5.78;;;;;;;11.98;52.92;101125.88;1095044;31;20684;-77
2022/04/16 09:00:53;;;;;;;9.25;5.55;;;;;;;11.85;52.90;101117.13;1087993;54;20039;-76
2022/04/16 09:01:55;;;;;;;7.88;5.55;;;;;;;11.85;52.22;101128.69;1092726;39;20071;-77
2022/04/16 09:03:03;;;;;;;7.00;5.22;;;;;;;11.89;52.87;101123.06;1088182;39;20708;-78
2022/04/16 09:04:05;;;;;;;7.00;4.72;;;;;;;11.97;52.54;101124.19;1088037;54;20057;-77
2022/04/16 09:05:12;;;;;;;8.13;4.93;;;;;;;12.14;51.84;101125.44;1087837;54;20782;-77
2022/04/16 09:06:24;;;;;;;6.63;4.47;;;;;;;12.13;51.94;101123.75;1088080;54;20014;-77
2022/04/16 09:07:26;;;;;;;7.70;5.20;;;;;;;12.24;51.83;101122.84;1087885;54;20035;-76
2022/04/16 09:08:31;;;;;;;7.53;5.40;;;;;;;12.26;51.61;101117.34;1087797;54;20027;-76
2022/04/16 09:09:36;;;;;;;6.72;4.75;;;;;;;12.39;51.62;101127.88;1087650;54;20106;-77
2022/04/16 09:10:43;;;;;;;7.70;5.28;;;;;;;12.38;51.21;101128.84;1087908;39;20421;-77
2022/04/16 09:11:48;;;;;;;7.38;5.28;;;;;;;12.33;51.50;101130.09;1087514;54;20034;-77
2022/04/16 09:12:55;;;;;;;7.18;5.55;;;;;;;12.43;50.98;101132.00;1087633;54;20090;-77
2022/04/16 09:13:59;;;;;;;7.35;5.07;;;;;;;12.38;50.97;101124.34;1087516;54;20039;-77
2022/04/16 09:15:05;;;;;;;7.45;5.22;;;;;;;12.28;51.20;101124.28;1087439;54;20034;-78
2022/04/16 09:16:10;;;;;;;8.05;5.72;;;;;;;12.44;51.38;101131.88;1088064;39;20806;-79
2022/04/16 09:17:15;;;;;;;10.18;6.72;;;;;;;12.45;51.38;101135.41;1087583;54;20042;-76
2022/04/16 09:18:20;;;;;;;7.85;5.43;;;;;;;12.68;50.99;101127.22;1089501;47;20038;-76
2022/04/16 09:19:29;;;;;;;7.38;5.05;;;;;;;12.84;50.60;101129.44;1087721;54;20045;-78
2022/04/16 09:20:38;;;;;;;7.15;5.10;;;;;;;12.87;50.15;101126.50;1088009;54;20694;-77
2022/04/16 09:21:43;;;;;;;6.80;5.10;;;;;;;12.74;50.57;101124.03;1088070;54;20030;-79
2022/04/16 09:22:49;;;;;;;8.40;5.28;;;;;;;12.74;50.56;101124.03;1088346;54;20086;-78
2022/04/16 09:23:53;;;;;;;7.90;5.60;;;;;;;12.53;50.33;101122.19;1088293;54;20034;-77
2022/04/16 09:25:00;;;;;;;8.73;5.43;;;;;;;12.58;50.29;101130.69;1088933;46;20098;-77
2022/04/16 09:26:04;;;;;;;7.45;5.22;;;;;;;12.58;50.39;101136.06;1088264;54;20041;-76
2022/04/16 09:27:13;;;;;;;8.30;5.30;;;;;;;12.57;49.76;101130.84;1088314;54;20031;-78
2022/04/16 09:28:20;;;;;;;7.72;5.70;;;;;;;12.47;49.82;101126.25;1088330;54;20031;-76
2022/04/16 09:29:24;;;;;;;8.63;5.88;;;;;;;12.43;50.31;101129.31;1088321;54;20030;-78
2022/04/16 09:30:34;;;;;;;6.20;4.70;;;;;;;12.42;50.26;101125.78;1088534;54;20041;-77
2022/04/16 09:31:38;;;;;;;7.47;5.25;;;;;;;12.37;50.57;101117.28;1088129;54;20045;-77
2022/04/16 09:32:47;;;;;;;7.10;5.28;;;;;;;12.28;50.55;101134.16;1087856;54;20034;-76
2022/04/16 09:33:48;;;;;;;6.68;4.85;;;;;;;12.38;50.46;101132.41;1087958;54;20038;-76
2022/04/16 09:34:58;;;;;;;6.80;4.70;;;;;;;12.63;50.33;101120.44;1087928;54;20041;-79
2022/04/16 09:36:06;;;;;;;6.97;4.18;;;;;;;12.83;49.75;101120.53;1087888;54;20138;-76
2022/04/16 09:37:38;;;;;;;6.18;4.25;;;;;;;13.02;48.94;101116.25;1087961;54;20031;-76
2022/04/16 09:39:05;;;;;;;6.88;4.25;;;;;;;12.95;48.28;101122.13;1087949;54;20031;-76